createdAt,value
2023-08-17T00:01:02.398Z,13.50
2023-08-17T00:04:04.228Z,12.30
2023-08-17T00:07:06.267Z,12.95
2023-08-17T00:10:08.206Z,13.55
2023-08-17T00:13:09.836Z,16.02
2023-08-17T00:16:11.474Z,14.98
2023-08-17T00:19:15.548Z,15.32
2023-08-17T00:22:17.248Z,16.48
2023-08-17T00:25:18.836Z,12.68
2023-08-17T00:28:20.493Z,16.33
2023-08-17T00:31:22.154Z,13.63
2023-08-17T00:34:23.854Z,13.55
2023-08-17T00:37:25.784Z,11.40
2023-08-17T00:40:27.590Z,13.50
2023-08-17T00:43:29.283Z,12.77
2023-08-17T00:46:31.543Z,12.65
2023-08-17T00:49:33.810Z,11.00
2023-08-17T00:52:35.790Z,15.93
2023-08-17T00:55:37.463Z,12.88
2023-08-17T00:58:39.206Z,13.60
2023-08-17T01:01:40.963Z,13.55
2023-08-17T01:04:42.590Z,11.73
2023-08-17T01:07:44.290Z,15.18
2023-08-17T01:11:00.589Z,13.32
2023-08-17T01:14:23.271Z,12.40
2023-08-17T01:17:32.833Z,13.07
2023-08-17T01:20:35.387Z,12.43
2023-08-17T01:23:37.027Z,13.15
2023-08-17T01:26:38.802Z,16.05
2023-08-17T01:29:40.862Z,16.70
2023-08-17T01:32:59.249Z,13.35
2023-08-17T01:36:07.017Z,13.57
2023-08-17T01:39:09.502Z,17.60
2023-08-17T01:42:13.492Z,12.55
2023-08-17T01:45:15.201Z,13.82
2023-08-17T01:48:16.799Z,16.48
2023-08-17T01:51:21.085Z,16.05
2023-08-17T01:54:23.048Z,20.23
2023-08-17T01:57:24.841Z,17.58
2023-08-17T02:00:26.655Z,15.48
2023-08-17T02:03:30.133Z,16.83
2023-08-17T02:06:31.848Z,17.92
2023-08-17T02:09:33.497Z,18.42
2023-08-17T02:12:35.110Z,17.42
2023-08-17T02:15:42.530Z,15.73
2023-08-17T02:18:44.162Z,13.18
2023-08-17T02:21:46.525Z,15.13
2023-08-17T02:24:48.159Z,14.82
2023-08-17T02:27:49.808Z,8.95
2023-08-17T02:30:56.727Z,10.25
2023-08-17T02:34:06.126Z,12.07
2023-08-17T02:37:07.870Z,11.80
2023-08-17T02:40:10.040Z,14.57
2023-08-17T02:43:11.654Z,12.05
2023-08-17T02:46:13.279Z,9.20
2023-08-17T02:49:14.970Z,10.25
2023-08-17T02:52:16.554Z,10.13
2023-08-17T02:55:18.250Z,12.88
2023-08-17T02:58:20.555Z,8.90
2023-08-17T03:01:22.274Z,10.57
2023-08-17T03:04:24.163Z,11.52
2023-08-17T03:07:25.936Z,9.50
2023-08-17T03:10:27.900Z,11.73
2023-08-17T03:13:29.486Z,11.00
2023-08-17T03:16:31.531Z,10.73
2023-08-17T03:19:33.660Z,10.30
2023-08-17T03:22:36.223Z,9.70
2023-08-17T03:25:38.826Z,9.93
2023-08-17T03:28:40.458Z,12.30
2023-08-17T03:31:42.108Z,13.30
2023-08-17T03:34:43.866Z,15.93
2023-08-17T03:37:46.500Z,16.73
2023-08-17T03:40:48.764Z,15.40
2023-08-17T03:43:50.571Z,12.27
2023-08-17T03:46:52.215Z,21.30
2023-08-17T03:49:53.853Z,13.20
2023-08-17T03:52:55.427Z,14.18
2023-08-17T03:55:57.081Z,16.27
2023-08-17T03:58:59.723Z,13.18
2023-08-17T04:02:01.413Z,13.15
2023-08-17T04:05:03.539Z,15.10
2023-08-17T04:08:05.304Z,17.40
2023-08-17T04:11:07.158Z,16.50
2023-08-17T04:14:10.100Z,18.92
2023-08-17T04:17:12.921Z,16.75
2023-08-17T04:20:14.793Z,17.75
2023-08-17T04:23:16.394Z,17.33
2023-08-17T04:26:17.997Z,14.52
2023-08-17T04:29:19.637Z,16.77
2023-08-17T04:32:21.344Z,19.67
2023-08-17T04:35:23.191Z,18.13
2023-08-17T04:38:24.829Z,18.67
2023-08-17T04:41:26.452Z,16.08
2023-08-17T04:44:28.069Z,16.08
2023-08-17T04:47:29.829Z,16.80
2023-08-17T04:50:31.520Z,16.45
2023-08-17T04:53:33.179Z,16.33
2023-08-17T04:56:34.871Z,15.30
2023-08-17T04:59:36.464Z,13.88
2023-08-17T05:02:38.643Z,18.15
2023-08-17T05:05:40.373Z,15.02
2023-08-17T05:08:41.935Z,16.30
2023-08-17T05:11:43.536Z,14.35
2023-08-17T05:14:45.138Z,13.50
2023-08-17T05:17:46.832Z,16.15
2023-08-17T05:20:48.495Z,14.52
2023-08-17T05:23:50.058Z,14.95
2023-08-17T05:26:51.666Z,16.83
2023-08-17T05:29:53.327Z,14.73
2023-08-17T05:32:55.017Z,14.82
2023-08-17T05:35:56.658Z,13.35
2023-08-17T05:38:58.354Z,11.75
2023-08-17T05:42:00.049Z,14.70
2023-08-17T05:45:01.653Z,15.93
2023-08-17T05:48:03.695Z,14.18
2023-08-17T05:51:05.408Z,13.95
2023-08-17T05:54:07.150Z,12.65
2023-08-17T05:57:08.803Z,12.65
2023-08-17T06:00:13.933Z,11.02
2023-08-17T06:03:15.581Z,15.07
2023-08-17T06:06:17.240Z,13.65
2023-08-17T06:09:18.979Z,11.80
2023-08-17T06:12:20.559Z,11.18
2023-08-17T06:15:22.987Z,12.50
2023-08-17T06:18:24.635Z,12.10
2023-08-17T06:21:26.259Z,11.55
2023-08-17T06:24:27.871Z,12.55
2023-08-17T06:27:29.683Z,11.20
2023-08-17T06:30:31.498Z,13.52
2023-08-17T06:33:39.223Z,14.00
2023-08-17T06:36:40.914Z,10.68
2023-08-17T06:39:42.549Z,10.38
2023-08-17T06:42:44.241Z,12.57
2023-08-17T06:45:46.002Z,12.55
2023-08-17T06:48:47.673Z,9.65
2023-08-17T06:51:49.846Z,9.40
2023-08-17T06:54:52.443Z,10.93
2023-08-17T06:57:54.332Z,9.45
2023-08-17T07:00:56.172Z,9.45
2023-08-17T07:03:58.301Z,9.20
2023-08-17T07:07:00.731Z,9.68
2023-08-17T07:10:02.624Z,10.68
2023-08-17T07:13:04.715Z,12.05
2023-08-17T07:16:06.389Z,12.05
2023-08-17T07:19:08.048Z,8.65
2023-08-17T07:22:09.668Z,12.02
2023-08-17T07:25:11.339Z,9.63
2023-08-17T07:28:13.066Z,10.25
2023-08-17T07:31:14.954Z,11.63
2023-08-17T07:34:16.650Z,7.15
2023-08-17T07:37:23.424Z,7.93
2023-08-17T07:40:25.120Z,9.05
2023-08-17T07:43:26.739Z,9.45
2023-08-17T07:46:28.377Z,7.45
2023-08-17T07:49:32.624Z,6.55
2023-08-17T07:52:34.892Z,7.03
2023-08-17T08:01:44.715Z,8.52
2023-08-17T08:04:46.383Z,7.93
2023-08-17T08:07:48.058Z,6.65
2023-08-17T08:10:49.702Z,6.03
2023-08-17T08:13:51.322Z,4.93
2023-08-17T08:16:52.991Z,5.47
2023-08-17T08:19:55.411Z,8.40
2023-08-17T08:22:57.037Z,6.55
2023-08-17T08:25:59.304Z,7.88
2023-08-17T08:29:01.796Z,5.57
2023-08-17T08:32:04.542Z,7.68
2023-08-17T08:35:06.683Z,5.00
2023-08-17T08:38:08.362Z,5.10
2023-08-17T08:41:10.672Z,6.18
2023-08-17T08:44:12.316Z,4.05
2023-08-17T08:47:14.892Z,5.40
2023-08-17T08:50:19.828Z,3.83
2023-08-17T08:53:29.223Z,4.07
2023-08-17T08:56:36.058Z,4.38
2023-08-17T08:59:45.167Z,4.88
2023-08-17T09:02:47.702Z,3.67
2023-08-17T09:05:50.638Z,4.82
2023-08-17T09:08:53.194Z,4.53
2023-08-17T09:11:54.754Z,3.00
2023-08-17T09:14:57.453Z,3.58
2023-08-17T09:17:59.386Z,4.72
2023-08-17T09:21:01.039Z,4.75
2023-08-17T09:24:02.663Z,4.25
2023-08-17T09:27:10.804Z,3.33
2023-08-17T09:30:13.088Z,3.22
2023-08-17T09:33:14.720Z,3.15
2023-08-17T09:36:16.359Z,3.08
2023-08-17T09:39:19.138Z,3.00
2023-08-17T09:42:22.806Z,5.05
2023-08-17T09:45:24.419Z,4.32
2023-08-17T09:48:32.948Z,2.10
2023-08-17T09:51:35.181Z,2.15
2023-08-17T09:54:37.027Z,2.05
2023-08-17T09:57:39.857Z,2.65
2023-08-17T10:00:50.485Z,3.38
2023-08-17T10:03:56.218Z,2.28
2023-08-17T10:07:06.777Z,3.78
2023-08-17T10:10:11.583Z,4.13
2023-08-17T10:13:16.779Z,3.40
2023-08-17T10:16:21.126Z,2.40
2023-08-17T10:19:34.987Z,3.72
2023-08-17T10:23:16.013Z,3.42
2023-08-17T10:26:18.815Z,2.83
2023-08-17T10:29:23.804Z,2.72
2023-08-17T10:32:26.443Z,2.92
2023-08-17T10:35:28.517Z,2.83
2023-08-17T10:38:30.119Z,4.30
2023-08-17T10:41:31.778Z,5.38
2023-08-17T10:44:47.406Z,3.42
2023-08-17T10:47:49.233Z,3.17
2023-08-17T10:51:02.671Z,3.85
2023-08-17T10:54:05.298Z,3.15
2023-08-17T10:57:37.598Z,3.30
2023-08-17T11:00:40.013Z,3.45
2023-08-17T11:03:43.791Z,3.20
2023-08-17T11:06:46.302Z,4.25
2023-08-17T11:09:48.055Z,3.80
2023-08-17T11:12:53.413Z,4.88
2023-08-17T11:15:55.694Z,4.05
2023-08-17T11:18:59.848Z,4.75
2023-08-17T11:22:02.117Z,3.50
2023-08-17T11:25:05.826Z,4.20
2023-08-17T11:28:09.738Z,4.43
2023-08-17T11:31:13.478Z,4.40
2023-08-17T11:34:18.062Z,4.80
2023-08-17T11:37:20.747Z,6.88
2023-08-17T11:40:24.724Z,4.78
2023-08-17T11:43:28.175Z,3.85
2023-08-17T11:46:30.338Z,4.60
2023-08-17T11:49:38.424Z,4.97
2023-08-17T11:52:46.178Z,4.53
2023-08-17T11:55:48.398Z,3.88
2023-08-17T11:58:50.051Z,4.03
2023-08-17T12:01:51.868Z,4.65
2023-08-17T12:04:54.882Z,4.22
2023-08-17T12:07:56.694Z,3.95
2023-08-17T12:10:58.582Z,3.50
2023-08-17T12:14:00.306Z,3.90
2023-08-17T12:17:02.024Z,4.85
2023-08-17T12:20:03.893Z,4.25
2023-08-17T12:23:06.597Z,4.43
2023-08-17T12:26:08.404Z,4.18
2023-08-17T12:29:10.635Z,5.25
2023-08-17T12:32:12.278Z,5.15
2023-08-17T12:35:14.074Z,4.45
2023-08-17T12:38:15.728Z,5.57
2023-08-17T12:41:18.727Z,5.35
2023-08-17T12:44:20.596Z,5.95
2023-08-17T12:47:22.211Z,5.03
2023-08-17T12:50:23.917Z,4.90
2023-08-17T12:53:25.559Z,5.20
2023-08-17T12:56:27.195Z,5.75
2023-08-17T12:59:28.843Z,4.40
2023-08-17T13:02:30.861Z,6.00
2023-08-17T13:05:34.085Z,3.38
2023-08-17T13:08:35.753Z,4.05
2023-08-17T13:11:37.318Z,4.88
2023-08-17T13:14:38.971Z,4.35
2023-08-17T13:17:40.634Z,4.85
2023-08-17T13:20:42.349Z,5.88
2023-08-17T13:23:43.939Z,5.18
2023-08-17T13:26:46.545Z,3.80
2023-08-17T13:29:48.335Z,3.90
2023-08-17T13:32:50.112Z,3.78
2023-08-17T13:35:52.361Z,4.38
2023-08-17T13:38:54.456Z,5.63
2023-08-17T13:41:56.085Z,4.65
2023-08-17T13:44:57.766Z,3.65
2023-08-17T13:47:59.427Z,5.10
2023-08-17T13:51:01.074Z,4.68
2023-08-17T13:54:02.734Z,5.50
2023-08-17T13:57:04.508Z,4.75
2023-08-17T14:00:07.502Z,6.47
2023-08-17T14:03:10.815Z,9.45
2023-08-17T14:06:12.525Z,8.15
2023-08-17T14:09:14.200Z,7.93
2023-08-17T14:12:15.863Z,5.95
2023-08-17T14:15:17.602Z,9.00
2023-08-17T14:18:19.329Z,7.82
2023-08-17T14:21:20.993Z,9.25
2023-08-17T14:24:22.686Z,8.18
2023-08-17T14:27:24.397Z,10.30
2023-08-17T14:30:27.299Z,11.02
2023-08-17T14:33:28.933Z,8.00
2023-08-17T14:36:30.977Z,7.15
2023-08-17T14:39:37.607Z,8.80
2023-08-17T14:42:39.655Z,9.23
2023-08-17T14:45:44.597Z,9.20
2023-08-17T14:48:46.291Z,8.30
2023-08-17T14:51:49.173Z,7.00
2023-08-17T14:54:50.852Z,8.63
2023-08-17T14:57:52.467Z,7.53
2023-08-17T15:00:54.063Z,6.57
2023-08-17T15:03:55.711Z,7.13
2023-08-17T15:06:57.317Z,6.05
2023-08-17T15:09:58.983Z,5.10
2023-08-17T15:13:00.840Z,7.97
2023-08-17T15:16:02.694Z,7.07
2023-08-17T15:19:08.222Z,5.72
2023-08-17T15:22:15.356Z,5.60
2023-08-17T15:25:17.741Z,4.97
2023-08-17T15:28:19.948Z,5.07
2023-08-17T15:31:21.705Z,5.90
2023-08-17T15:34:23.314Z,7.00
2023-08-17T15:37:25.760Z,5.88
2023-08-17T15:40:27.622Z,5.80
2023-08-17T15:43:29.259Z,6.88
2023-08-17T15:46:31.339Z,8.07
2023-08-17T15:49:33.001Z,7.25
2023-08-17T15:52:34.592Z,6.55
2023-08-17T15:55:36.482Z,6.05
2023-08-17T15:58:38.118Z,7.47
2023-08-17T16:01:39.768Z,8.10
2023-08-17T16:04:41.503Z,7.55
2023-08-17T16:07:43.111Z,7.18
2023-08-17T16:10:44.719Z,6.85
2023-08-17T16:13:47.028Z,6.78
2023-08-17T16:16:48.907Z,11.40
2023-08-17T16:19:50.536Z,7.63
2023-08-17T16:22:52.164Z,6.78
2023-08-17T16:25:53.999Z,5.50
2023-08-17T16:28:55.640Z,5.80
2023-08-17T16:32:09.030Z,5.40
2023-08-17T16:35:11.193Z,6.03
2023-08-17T16:38:12.853Z,7.32
2023-08-17T16:41:14.489Z,5.32
2023-08-17T16:44:16.124Z,5.95
2023-08-17T16:47:19.871Z,6.15
2023-08-17T16:50:21.674Z,7.65
2023-08-17T16:53:23.387Z,6.15
2023-08-17T16:56:25.063Z,6.45
2023-08-17T16:59:26.689Z,6.70
2023-08-17T17:02:28.275Z,12.57
2023-08-17T17:05:29.894Z,11.13
2023-08-17T17:08:31.464Z,10.07
2023-08-17T17:11:33.146Z,11.55
2023-08-17T17:14:34.845Z,14.95
2023-08-17T17:17:36.700Z,9.48
2023-08-17T17:20:38.427Z,10.23
2023-08-17T17:23:40.079Z,11.15
2023-08-17T17:26:41.810Z,9.85
2023-08-17T17:29:43.485Z,10.40
2023-08-17T17:32:45.112Z,11.60
2023-08-17T17:35:46.874Z,9.88
2023-08-17T17:38:48.504Z,11.63
2023-08-17T17:41:50.209Z,9.05
2023-08-17T17:44:51.835Z,10.75
2023-08-17T17:47:53.487Z,10.70
2023-08-17T17:50:55.151Z,8.60
2023-08-17T17:53:56.937Z,9.07
2023-08-17T17:57:00.117Z,8.80
2023-08-17T18:00:01.710Z,11.02
2023-08-17T18:03:14.082Z,9.20
2023-08-17T18:06:16.011Z,12.13
2023-08-17T18:09:17.657Z,9.90
2023-08-17T18:12:19.403Z,10.32
2023-08-17T18:15:21.126Z,8.02
2023-08-17T18:18:22.761Z,8.40
2023-08-17T18:21:24.473Z,10.32
2023-08-17T18:24:26.086Z,11.23
2023-08-17T18:27:27.951Z,10.25
2023-08-17T18:30:30.495Z,10.73
2023-08-17T18:33:32.324Z,9.80
2023-08-17T18:36:35.455Z,12.40
2023-08-17T18:39:37.154Z,14.20
2023-08-17T18:42:40.500Z,10.00
2023-08-17T18:45:42.170Z,9.80
2023-08-17T18:48:43.754Z,9.43
2023-08-17T18:51:45.342Z,8.82
2023-08-17T18:55:01.291Z,6.32
2023-08-17T18:58:03.217Z,9.07
2023-08-17T19:01:04.860Z,8.77
2023-08-17T19:04:06.616Z,7.43
2023-08-17T19:07:08.298Z,7.57
2023-08-17T19:10:10.190Z,8.52
2023-08-17T19:13:11.839Z,7.07
2023-08-17T19:16:13.521Z,7.60
2023-08-17T19:19:15.244Z,6.43
2023-08-17T19:22:16.949Z,3.95
2023-08-17T19:25:18.621Z,7.78
2023-08-17T19:28:20.221Z,7.10
2023-08-17T19:31:22.069Z,5.80
2023-08-17T19:34:23.948Z,6.90
2023-08-17T19:37:25.907Z,5.95
2023-08-17T19:40:28.574Z,5.60
2023-08-17T19:43:30.206Z,8.85
2023-08-17T19:46:32.275Z,6.75
2023-08-17T19:49:33.877Z,7.95
2023-08-17T19:52:35.460Z,7.55
2023-08-17T19:55:37.123Z,9.80
2023-08-17T19:58:38.833Z,7.82
2023-08-17T20:01:40.507Z,9.30
2023-08-17T20:04:42.361Z,8.05
2023-08-17T20:07:44.056Z,7.22
2023-08-17T20:10:45.799Z,8.25
2023-08-17T20:13:47.743Z,7.93
2023-08-17T20:16:49.597Z,8.40
2023-08-17T20:19:51.261Z,7.10
2023-08-17T20:22:53.014Z,8.65
2023-08-17T20:25:57.454Z,7.10
2023-08-17T20:28:59.303Z,9.13
2023-08-17T20:32:00.994Z,7.50
2023-08-17T20:35:02.615Z,7.57
2023-08-17T20:38:04.837Z,8.90
2023-08-17T20:41:06.512Z,11.25
2023-08-17T20:44:08.481Z,11.38
2023-08-17T20:47:10.144Z,10.98
2023-08-17T20:50:13.498Z,9.00
2023-08-17T20:53:18.077Z,9.07
2023-08-17T20:56:20.629Z,10.60
2023-08-17T20:59:22.351Z,9.13
2023-08-17T21:02:24.032Z,11.43
2023-08-17T21:05:28.574Z,7.55
2023-08-17T21:08:30.204Z,9.38
2023-08-17T21:11:31.840Z,9.55
2023-08-17T21:14:33.454Z,10.82
2023-08-17T21:17:35.275Z,10.05
2023-08-17T21:20:36.891Z,10.43
2023-08-17T21:23:38.527Z,11.60
2023-08-17T21:26:40.301Z,10.73
2023-08-17T21:29:41.923Z,10.55
2023-08-17T21:32:43.779Z,13.13
2023-08-17T21:35:45.489Z,11.85
2023-08-17T21:38:47.940Z,10.90
2023-08-17T21:41:49.658Z,12.45
2023-08-17T21:44:51.613Z,13.85
2023-08-17T21:47:53.336Z,10.90
2023-08-17T21:50:55.397Z,11.52
2023-08-17T21:53:59.391Z,14.15
2023-08-17T21:57:00.988Z,13.55
2023-08-17T22:00:03.100Z,16.77
2023-08-17T22:03:06.132Z,15.20
2023-08-17T22:06:08.075Z,13.30
2023-08-17T22:09:09.657Z,15.15
2023-08-17T22:12:11.735Z,16.52
2023-08-17T22:15:13.449Z,14.23
2023-08-17T22:18:15.067Z,13.07
2023-08-17T22:21:16.703Z,14.75
2023-08-17T22:24:18.401Z,16.25
2023-08-17T22:27:20.009Z,16.02
2023-08-17T22:30:21.773Z,14.48
2023-08-17T22:33:23.404Z,17.58
2023-08-17T22:36:25.337Z,17.08
2023-08-17T22:39:27.428Z,20.45
2023-08-17T22:42:29.054Z,19.48
2023-08-17T22:45:30.742Z,16.15
2023-08-17T22:48:32.458Z,14.82
2023-08-17T22:51:34.044Z,16.27
2023-08-17T22:54:35.739Z,16.55
2023-08-17T22:57:37.376Z,14.13
2023-08-17T23:00:40.195Z,17.30
2023-08-17T23:03:41.862Z,15.25
2023-08-17T23:06:43.463Z,16.20
2023-08-17T23:09:45.204Z,16.02
2023-08-17T23:12:46.863Z,15.85
2023-08-17T23:15:48.532Z,18.42
2023-08-17T23:18:50.462Z,13.82
2023-08-17T23:21:52.308Z,16.05
2023-08-17T23:24:53.913Z,20.05
2023-08-17T23:27:55.843Z,16.38
2023-08-17T23:31:01.003Z,18.08
2023-08-17T23:34:02.921Z,18.17
2023-08-17T23:37:04.641Z,22.63
2023-08-17T23:40:08.350Z,18.25
2023-08-17T23:43:10.063Z,23.02
2023-08-17T23:46:11.711Z,20.08
2023-08-17T23:49:15.356Z,27.02
2023-08-17T23:52:16.948Z,17.75
2023-08-17T23:55:18.720Z,19.75
2023-08-17T23:58:20.370Z,22.90
